Time;durP1;ratioP1;P1;durP2;ratioP2;P2;SDS_P1;SDS_P2;PMS_P1;PMS_P2;Temp;Humidity;BMP_temperature;BMP_pressure;BME280_temperature;BME280_humidity;BME280_pressure;Samples;Min_cycle;Max_cycle;Signal;HPM_P1;HPM_P2
2023/08/02 00:00:21;;;;;;;4.82;2.65;;;;;;;;;;5035915;28;20331;-64
2023/08/02 00:02:47;;;;;;;6.50;3.08;;;;;;;;;;5050965;28;20019;-64
2023/08/02 00:05:12;;;;;;;6.00;2.88;;;;;;;;;;5053655;28;20131;-64
2023/08/02 00:07:37;;;;;;;6.05;3.28;;;;;;;;;;5050140;28;20998;-64
2023/08/02 00:10:03;;;;;;;4.07;2.73;;;;;;;;;;5063578;28;20016;-64
2023/08/02 00:12:29;;;;;;;11.23;2.70;;;;;;;;;;5058251;28;20432;-64
2023/08/02 00:14:54;;;;;;;5.20;2.78;;;;;;;;;;5047072;28;20795;-64
2023/08/02 00:17:19;;;;;;;5.50;2.95;;;;;;;;;;5050942;28;20382;-64
2023/08/02 00:19:44;;;;;;;5.90;3.20;;;;;;;;;;5049047;28;20039;-64
2023/08/02 00:22:09;;;;;;;6.77;3.53;;;;;;;;;;5060040;28;20972;-64
2023/08/02 00:24:35;;;;;;;9.38;3.30;;;;;;;;;;5064499;28;20716;-64
2023/08/02 00:27:00;;;;;;;7.60;3.03;;;;;;;;;;5058395;28;20055;-64
2023/08/02 00:29:25;;;;;;;6.33;3.37;;;;;;;;;;5048487;28;20726;-64
2023/08/02 00:31:50;;;;;;;8.57;2.93;;;;;;;;;;5057832;28;20282;-64
2023/08/02 00:34:16;;;;;;;4.67;2.97;;;;;;;;;;5052704;28;20293;-64
2023/08/02 00:36:41;;;;;;;5.80;3.30;;;;;;;;;;5049652;28;20313;-64
2023/08/02 00:39:07;;;;;;;6.50;3.67;;;;;;;;;;5065684;28;20044;-64
2023/08/02 00:41:32;;;;;;;6.75;3.20;;;;;;;;;;5059127;28;21220;-64
2023/08/02 00:43:57;;;;;;;6.90;3.40;;;;;;;;;;5062150;28;20020;-64
2023/08/02 00:46:23;;;;;;;5.60;3.33;;;;;;;;;;5059346;28;20269;-64
2023/08/02 00:48:48;;;;;;;8.38;3.80;;;;;;;;;;5061272;28;20339;-64
2023/08/02 00:51:17;;;;;;;8.93;4.07;;;;;;;;;;5057645;28;20023;-65
2023/08/02 00:53:46;;;;;;;6.78;3.75;;;;;;;;;;5046515;28;20031;-65
2023/08/02 00:56:13;;;;;;;7.88;3.90;;;;;;;;;;5049303;28;20085;-64
2023/08/02 00:58:38;;;;;;;6.10;2.85;;;;;;;;;;5052030;28;20180;-64
2023/08/02 01:01:07;;;;;;;6.90;3.78;;;;;;;;;;5060792;28;20882;-64
2023/08/02 01:03:36;;;;;;;6.97;4.00;;;;;;;;;;5049805;28;20136;-64
2023/08/02 01:06:06;;;;;;;8.02;3.85;;;;;;;;;;5063622;28;20039;-64
2023/08/02 01:08:33;;;;;;;7.53;4.20;;;;;;;;;;5046641;28;20036;-64
2023/08/02 01:11:04;;;;;;;6.72;4.03;;;;;;;;;;5048891;28;20103;-64
2023/08/02 01:13:30;;;;;;;7.65;4.60;;;;;;;;;;5051189;28;20034;-64
2023/08/02 01:15:56;;;;;;;8.18;3.58;;;;;;;;;;5060849;28;20035;-65
2023/08/02 01:18:21;;;;;;;7.97;3.65;;;;;;;;;;5033231;28;20028;-65
2023/08/02 01:20:46;;;;;;;6.88;3.95;;;;;;;;;;5059016;28;20027;-63
2023/08/02 01:23:11;;;;;;;10.80;4.43;;;;;;;;;;5056765;28;20035;-63
2023/08/02 01:25:37;;;;;;;5.85;3.65;;;;;;;;;;5059280;28;20100;-64
2023/08/02 01:28:04;;;;;;;8.35;3.55;;;;;;;;;;5050395;28;20894;-64
2023/08/02 01:30:31;;;;;;;8.57;3.75;;;;;;;;;;5050095;28;20031;-63
2023/08/02 01:32:57;;;;;;;10.95;4.35;;;;;;;;;;5057308;28;20024;-64
2023/08/02 01:35:22;;;;;;;7.07;4.00;;;;;;;;;;5047097;28;20808;-64
2023/08/02 01:37:48;;;;;;;7.43;3.42;;;;;;;;;;5046152;28;20027;-64
2023/08/02 01:40:14;;;;;;;9.73;4.45;;;;;;;;;;5056495;28;20027;-64
2023/08/02 01:42:39;;;;;;;8.05;4.07;;;;;;;;;;5057300;28;20845;-64
2023/08/02 01:45:04;;;;;;;6.80;3.72;;;;;;;;;;5051153;28;20835;-63
2023/08/02 01:47:30;;;;;;;6.65;4.43;;;;;;;;;;5054082;28;20016;-63
2023/08/02 01:49:55;;;;;;;5.45;4.07;;;;;;;;;;5056986;28;20119;-63
2023/08/02 01:52:20;;;;;;;10.25;4.15;;;;;;;;;;5049646;28;20762;-63
2023/08/02 01:54:45;;;;;;;7.85;4.70;;;;;;;;;;5045685;28;20833;-63
2023/08/02 01:57:11;;;;;;;9.02;4.88;;;;;;;;;;5047038;28;20089;-63
2023/08/02 01:59:36;;;;;;;9.13;4.55;;;;;;;;;;5059143;28;20802;-63
2023/08/02 02:02:01;;;;;;;7.68;4.63;;;;;;;;;;5059249;28;20059;-63
2023/08/02 02:04:26;;;;;;;10.70;4.55;;;;;;;;;;5052053;28;20909;-63
2023/08/02 02:06:52;;;;;;;7.20;4.35;;;;;;;;;;5049055;28;20024;-64
2023/08/02 02:09:17;;;;;;;10.50;4.47;;;;;;;;;;5060006;28;20035;-63
2023/08/02 02:11:42;;;;;;;8.18;4.72;;;;;;;;;;5055276;28;20822;-64
2023/08/02 02:14:09;;;;;;;6.13;4.63;;;;;;;;;;5055562;28;20041;-63
2023/08/02 02:16:34;;;;;;;7.72;4.68;;;;;;;;;;5060697;28;21097;-64
2023/08/02 02:18:59;;;;;;;7.10;4.63;;;;;;;;;;5052233;28;20087;-63
2023/08/02 02:21:24;;;;;;;5.68;4.57;;;;;;;;;;5054722;28;20023;-64
2023/08/02 02:23:50;;;;;;;6.95;4.43;;;;;;;;;;5059727;28;20880;-64
2023/08/02 02:26:15;;;;;;;6.60;4.50;;;;;;;;;;5051752;28;20020;-63
2023/08/02 02:28:40;;;;;;;7.35;4.82;;;;;;;;;;5062329;28;20027;-64
2023/08/02 02:31:05;;;;;;;8.10;4.53;;;;;;;;;;5060279;28;20138;-64
2023/08/02 02:33:31;;;;;;;7.32;4.63;;;;;;;;;;5057349;28;21212;-64
2023/08/02 02:35:56;;;;;;;6.55;4.88;;;;;;;;;;5031318;28;20214;-64
2023/08/02 02:38:21;;;;;;;7.28;4.63;;;;;;;;;;5048902;28;20095;-64
2023/08/02 02:40:46;;;;;;;9.80;5.60;;;;;;;;;;5058234;28;20050;-64
2023/08/02 02:43:12;;;;;;;6.78;5.03;;;;;;;;;;5063186;28;20084;-63
2023/08/02 02:45:37;;;;;;;6.50;4.90;;;;;;;;;;5056233;28;20932;-63
2023/08/02 02:48:02;;;;;;;11.90;5.28;;;;;;;;;;5050607;28;21194;-63
2023/08/02 02:50:28;;;;;;;6.78;4.80;;;;;;;;;;5050586;28;20081;-63
2023/08/02 02:52:53;;;;;;;10.27;5.47;;;;;;;;;;5049483;28;20152;-63
2023/08/02 02:55:18;;;;;;;10.00;5.40;;;;;;;;;;5049155;28;20135;-63
2023/08/02 02:57:44;;;;;;;7.80;5.13;;;;;;;;;;5049786;28;21220;-64
2023/08/02 03:00:09;;;;;;;9.35;4.78;;;;;;;;;;5052529;28;20131;-64
2023/08/02 03:02:34;;;;;;;8.30;5.40;;;;;;;;;;5059372;28;20028;-64
2023/08/02 03:05:00;;;;;;;5.77;4.53;;;;;;;;;;5059143;28;20866;-64
2023/08/02 03:07:25;;;;;;;8.77;5.22;;;;;;;;;;5056884;28;21013;-64
2023/08/02 03:09:50;;;;;;;8.55;5.60;;;;;;;;;;5055170;28;20122;-63
2023/08/02 03:12:16;;;;;;;8.23;4.97;;;;;;;;;;5061480;28;20091;-63
2023/08/02 03:14:41;;;;;;;9.52;5.45;;;;;;;;;;5046842;28;20801;-64
2023/08/02 03:17:06;;;;;;;7.22;4.53;;;;;;;;;;5050408;28;20054;-63
2023/08/02 03:19:31;;;;;;;6.60;4.90;;;;;;;;;;5062895;28;20020;-63
2023/08/02 03:21:57;;;;;;;7.40;4.80;;;;;;;;;;5049452;28;20020;-63
2023/08/02 03:24:22;;;;;;;9.10;5.20;;;;;;;;;;5057581;28;21085;-63
2023/08/02 03:26:47;;;;;;;7.90;5.53;;;;;;;;;;5061186;28;20127;-63
2023/08/02 03:29:12;;;;;;;6.50;5.38;;;;;;;;;;5056941;28;20897;-63
2023/08/02 03:31:38;;;;;;;6.82;5.32;;;;;;;;;;5055898;28;20036;-63
2023/08/02 03:34:03;;;;;;;5.63;4.90;;;;;;;;;;5055739;28;20647;-64
2023/08/02 03:36:28;;;;;;;7.53;5.25;;;;;;;;;;5055187;28;21194;-64
2023/08/02 03:38:53;;;;;;;7.53;5.30;;;;;;;;;;5059531;28;20882;-63
2023/08/02 03:41:19;;;;;;;5.60;4.57;;;;;;;;;;5055833;28;20024;-63
2023/08/02 03:43:44;;;;;;;8.00;5.20;;;;;;;;;;5054281;28;20179;-64
2023/08/02 03:46:09;;;;;;;7.33;4.63;;;;;;;;;;5059487;28;20023;-63
2023/08/02 03:48:35;;;;;;;5.57;4.63;;;;;;;;;;5057704;28;21322;-63
2023/08/02 03:51:00;;;;;;;6.65;4.85;;;;;;;;;;5050229;28;21600;-64
2023/08/02 03:53:26;;;;;;;5.63;4.40;;;;;;;;;;5058801;28;20132;-64
2023/08/02 03:55:51;;;;;;;8.05;5.25;;;;;;;;;;5062226;28;20777;-64
2023/08/02 03:58:16;;;;;;;6.67;5.20;;;;;;;;;;5054407;28;20020;-64
2023/08/02 04:00:41;;;;;;;8.18;5.65;;;;;;;;;;5051668;28;21204;-63
2023/08/02 04:03:07;;;;;;;6.05;5.35;;;;;;;;;;5060495;28;20104;-63
2023/08/02 04:05:32;;;;;;;7.57;5.57;;;;;;;;;;5061064;28;20817;-64
2023/08/02 04:07:57;;;;;;;8.10;6.13;;;;;;;;;;5060375;28;20119;-63
2023/08/02 04:10:24;;;;;;;10.57;6.63;;;;;;;;;;5053596;28;20981;-63
2023/08/02 04:12:50;;;;;;;9.77;5.57;;;;;;;;;;5048271;28;20024;-64
2023/08/02 04:15:15;;;;;;;7.22;5.65;;;;;;;;;;5056155;28;20043;-63
2023/08/02 04:17:41;;;;;;;8.40;6.05;;;;;;;;;;5061865;28;21000;-64
2023/08/02 04:20:06;;;;;;;8.48;6.28;;;;;;;;;;5052213;28;20944;-64
2023/08/02 04:22:32;;;;;;;8.75;5.65;;;;;;;;;;5047823;28;20090;-64
2023/08/02 04:24:57;;;;;;;7.30;5.40;;;;;;;;;;5061127;28;20066;-63
2023/08/02 04:27:22;;;;;;;12.98;5.32;;;;;;;;;;5062365;28;20050;-63
2023/08/02 04:29:48;;;;;;;6.28;5.28;;;;;;;;;;5056856;28;20849;-63
2023/08/02 04:32:13;;;;;;;9.23;5.07;;;;;;;;;;5051960;28;20026;-63
2023/08/02 04:34:39;;;;;;;8.57;5.20;;;;;;;;;;5060991;28;20059;-63
2023/08/02 04:37:04;;;;;;;8.25;6.47;;;;;;;;;;5060659;28;20401;-63
2023/08/02 04:39:29;;;;;;;6.90;5.27;;;;;;;;;;5056364;28;20063;-63
2023/08/02 04:41:54;;;;;;;8.60;5.78;;;;;;;;;;5048100;28;20592;-63
2023/08/02 04:44:20;;;;;;;6.38;5.40;;;;;;;;;;5046545;28;21391;-62
2023/08/02 04:46:45;;;;;;;7.88;5.65;;;;;;;;;;5057594;28;20016;-62
2023/08/02 04:49:10;;;;;;;8.83;6.40;;;;;;;;;;5054515;28;20916;-62
2023/08/02 04:51:37;;;;;;;9.37;7.17;;;;;;;;;;5051458;28;20484;-62
2023/08/02 04:54:03;;;;;;;7.22;5.50;;;;;;;;;;5054512;28;20294;-62
2023/08/02 04:56:28;;;;;;;9.02;6.60;;;;;;;;;;5061976;28;20082;-62
2023/08/02 04:58:53;;;;;;;8.37;5.93;;;;;;;;;;5063010;28;20023;-63
2023/08/02 05:01:19;;;;;;;8.48;6.75;;;;;;;;;;5064768;28;20266;-63
2023/08/02 05:03:44;;;;;;;11.38;7.95;;;;;;;;;;5052772;28;20863;-62
2023/08/02 05:06:09;;;;;;;10.07;8.35;;;;;;;;;;5054625;28;20100;-63
2023/08/02 05:08:35;;;;;;;12.27;9.25;;;;;;;;;;5058128;28;20869;-63
2023/08/02 05:11:03;;;;;;;9.93;8.15;;;;;;;;;;5049850;28;20032;-62
2023/08/02 05:13:28;;;;;;;9.73;7.50;;;;;;;;;;5048110;28;20110;-63
2023/08/02 05:15:54;;;;;;;9.50;7.88;;;;;;;;;;5051170;28;20783;-62
2023/08/02 05:18:20;;;;;;;10.73;7.85;;;;;;;;;;5057239;28;20100;-63
2023/08/02 05:20:45;;;;;;;9.95;7.55;;;;;;;;;;5049645;28;20026;-62
2023/08/02 05:23:10;;;;;;;10.07;7.95;;;;;;;;;;5047586;28;20866;-62
2023/08/02 05:25:36;;;;;;;8.35;7.18;;;;;;;;;;5058703;28;20036;-63
2023/08/02 05:28:01;;;;;;;10.80;8.00;;;;;;;;;;5053811;28;20028;-62
2023/08/02 05:30:26;;;;;;;12.27;8.18;;;;;;;;;;5058890;28;20399;-62
2023/08/02 05:32:52;;;;;;;10.05;7.95;;;;;;;;;;5055454;28;20943;-62
2023/08/02 05:35:17;;;;;;;8.38;6.95;;;;;;;;;;5055459;28;20020;-63
2023/08/02 05:37:42;;;;;;;10.07;7.80;;;;;;;;;;5053336;28;20028;-62
2023/08/02 05:40:08;;;;;;;10.27;7.78;;;;;;;;;;5060687;28;20274;-62
2023/08/02 05:42:33;;;;;;;12.20;7.70;;;;;;;;;;5056760;28;20035;-63
2023/08/02 05:44:58;;;;;;;11.50;9.27;;;;;;;;;;5054133;28;20023;-63
2023/08/02 05:47:23;;;;;;;12.10;9.57;;;;;;;;;;5034606;28;20105;-63
2023/08/02 05:49:49;;;;;;;11.43;7.23;;;;;;;;;;5062458;28;20288;-63
2023/08/02 05:52:14;;;;;;;12.65;8.65;;;;;;;;;;5060002;28;21167;-63
2023/08/02 05:54:40;;;;;;;9.05;7.38;;;;;;;;;;5052220;28;20028;-62
2023/08/02 05:57:05;;;;;;;9.07;7.05;;;;;;;;;;5054307;28;20785;-63
2023/08/02 05:59:31;;;;;;;9.88;6.47;;;;;;;;;;5057372;28;20085;-63
2023/08/02 06:01:56;;;;;;;8.35;6.75;;;;;;;;;;5065415;28;20023;-63
2023/08/02 06:04:21;;;;;;;7.85;6.25;;;;;;;;;;5053210;28;20592;-63
2023/08/02 06:06:46;;;;;;;9.68;6.93;;;;;;;;;;5060545;28;20245;-63
2023/08/02 06:09:13;;;;;;;9.68;5.72;;;;;;;;;;5061546;28;20876;-63
2023/08/02 06:11:38;;;;;;;9.73;6.95;;;;;;;;;;5062678;28;20862;-64
2023/08/02 06:14:03;;;;;;;7.63;6.20;;;;;;;;;;5057209;28;20119;-64
2023/08/02 06:16:29;;;;;;;9.43;6.25;;;;;;;;;;5059884;28;21190;-64
2023/08/02 06:18:54;;;;;;;9.13;6.68;;;;;;;;;;5061418;28;20834;-64
2023/08/02 06:21:19;;;;;;;10.32;6.13;;;;;;;;;;5062741;28;20228;-64
2023/08/02 06:23:45;;;;;;;7.13;5.53;;;;;;;;;;5055634;28;20127;-64
2023/08/02 06:26:10;;;;;;;6.80;5.57;;;;;;;;;;5060732;28;20023;-64
2023/08/02 06:28:35;;;;;;;6.13;5.53;;;;;;;;;;5059361;28;20132;-63
2023/08/02 06:31:00;;;;;;;7.30;5.72;;;;;;;;;;5061759;28;20011;-63
2023/08/02 06:33:26;;;;;;;9.13;6.23;;;;;;;;;;5059874;28;20027;-63
2023/08/02 06:35:51;;;;;;;8.77;6.00;;;;;;;;;;5066963;28;20297;-64
2023/08/02 06:38:16;;;;;;;7.47;5.53;;;;;;;;;;5055207;28;21214;-63
2023/08/02 06:40:41;;;;;;;7.73;5.53;;;;;;;;;;5055386;28;20054;-64
2023/08/02 06:43:07;;;;;;;6.07;4.70;;;;;;;;;;5060631;28;20323;-64
2023/08/02 06:45:32;;;;;;;6.85;4.63;;;;;;;;;;5057086;28;20828;-64
2023/08/02 06:47:57;;;;;;;5.05;3.88;;;;;;;;;;5060417;28;20088;-64
2023/08/02 06:50:23;;;;;;;6.10;4.60;;;;;;;;;;5058586;28;20916;-64
2023/08/02 06:52:48;;;;;;;9.07;4.50;;;;;;;;;;5059892;28;20146;-64
2023/08/02 06:55:13;;;;;;;7.30;4.90;;;;;;;;;;5058945;28;20034;-64
2023/08/02 06:57:39;;;;;;;5.35;3.90;;;;;;;;;;5047557;28;20273;-64
2023/08/02 07:00:05;;;;;;;4.43;3.93;;;;;;;;;;5055211;28;20019;-64
2023/08/02 07:02:30;;;;;;;5.03;3.45;;;;;;;;;;5061009;28;20276;-64
2023/08/02 07:04:56;;;;;;;5.90;3.35;;;;;;;;;;5093131;28;20020;-63
2023/08/02 07:07:21;;;;;;;7.60;3.15;;;;;;;;;;5102912;28;20031;-64
2023/08/02 07:09:47;;;;;;;3.40;2.47;;;;;;;;;;5103742;28;20080;-64
2023/08/02 07:12:12;;;;;;;3.75;2.22;;;;;;;;;;5106312;28;20441;-64
2023/08/02 07:14:37;;;;;;;3.27;2.23;;;;;;;;;;5107235;28;20094;-63
2023/08/02 07:17:03;;;;;;;3.50;2.10;;;;;;;;;;5094180;28;20644;-64
2023/08/02 07:19:28;;;;;;;3.00;1.60;;;;;;;;;;5093283;28;20077;-64
2023/08/02 07:21:54;;;;;;;3.28;1.63;;;;;;;;;;5094165;28;20027;-64
2023/08/02 07:24:19;;;;;;;1.83;0.97;;;;;;;;;;5094011;28;20561;-64
2023/08/02 07:26:44;;;;;;;1.90;1.07;;;;;;;;;;5106482;28;20636;-63
2023/08/02 07:29:09;;;;;;;2.20;1.10;;;;;;;;;;5094252;28;20261;-63
2023/08/02 07:31:35;;;;;;;1.83;0.80;;;;;;;;;;5094221;28;20274;-63
2023/08/02 07:34:00;;;;;;;2.10;0.98;;;;;;;;;;5094030;28;20384;-63
2023/08/02 07:36:25;;;;;;;1.00;0.50;;;;;;;;;;5093619;28;20032;-63
2023/08/02 07:38:51;;;;;;;1.17;0.60;;;;;;;;;;5094165;28;20314;-63
2023/08/02 07:41:16;;;;;;;1.00;0.47;;;;;;;;;;5094106;28;20262;-64
2023/08/02 07:43:41;;;;;;;1.50;0.45;;;;;;;;;;5094171;28;20199;-63
2023/08/02 07:46:17;;;;;;;2.78;0.60;;;;;;;;;;5093515;28;20370;-63
2023/08/02 07:48:42;;;;;;;1.77;0.40;;;;;;;;;;5093531;28;20069;-64
2023/08/02 07:51:08;;;;;;;2.28;0.50;;;;;;;;;;5093541;28;20095;-63
2023/08/02 07:53:33;;;;;;;1.08;0.43;;;;;;;;;;5093993;28;20036;-64
2023/08/02 07:55:59;;;;;;;1.07;0.30;;;;;;;;;;5093895;28;20032;-64
2023/08/02 07:58:24;;;;;;;1.35;0.40;;;;;;;;;;5106327;28;20277;-64
2023/08/02 08:00:49;;;;;;;1.07;0.30;;;;;;;;;;5100672;28;20027;-64
2023/08/02 08:03:14;;;;;;;0.90;0.40;;;;;;;;;;5099713;28;20282;-64
2023/08/02 08:05:41;;;;;;;0.83;0.30;;;;;;;;;;5092969;28;20266;-64
2023/08/02 08:08:06;;;;;;;0.90;0.30;;;;;;;;;;5105823;28;20308;-64
2023/08/02 08:10:32;;;;;;;1.10;0.30;;;;;;;;;;5092618;28;20064;-64
2023/08/02 08:12:57;;;;;;;0.47;0.20;;;;;;;;;;5092006;28;20358;-64
2023/08/02 08:15:23;;;;;;;1.13;0.30;;;;;;;;;;5099073;28;20073;-64
2023/08/02 08:17:48;;;;;;;1.15;0.45;;;;;;;;;;5112247;28;20118;-64
2023/08/02 08:20:13;;;;;;;1.03;0.20;;;;;;;;;;5094157;28;20054;-64
2023/08/02 08:22:38;;;;;;;0.50;0.20;;;;;;;;;;5112330;28;20273;-63
2023/08/02 08:25:04;;;;;;;0.97;0.30;;;;;;;;;;5112036;28;20098;-63
2023/08/02 08:27:29;;;;;;;0.47;0.20;;;;;;;;;;5107615;28;20282;-64
2023/08/02 08:29:54;;;;;;;2.03;0.50;;;;;;;;;;5112537;28;20026;-63
2023/08/02 08:32:22;;;;;;;0.83;0.30;;;;;;;;;;5112569;28;20020;-63
2023/08/02 08:34:47;;;;;;;1.55;0.40;;;;;;;;;;5094243;28;20293;-64
2023/08/02 08:37:12;;;;;;;0.63;0.28;;;;;;;;;;5063734;28;20034;-63
2023/08/02 08:39:38;;;;;;;0.70;0.37;;;;;;;;;;5050261;28;20036;-63
2023/08/02 08:42:07;;;;;;;0.50;0.30;;;;;;;;;;5049744;28;20385;-63
2023/08/02 08:44:35;;;;;;;0.50;0.30;;;;;;;;;;5048805;28;20024;-63
2023/08/02 08:47:03;;;;;;;1.23;0.40;;;;;;;;;;5067726;28;20016;-63
2023/08/02 08:49:28;;;;;;;0.40;0.20;;;;;;;;;;5100423;28;20459;-63
2023/08/02 08:51:56;;;;;;;1.20;0.40;;;;;;;;;;5099376;28;20068;-63
2023/08/02 08:54:23;;;;;;;1.35;0.60;;;;;;;;;;5107253;28;20142;-63
2023/08/02 08:56:49;;;;;;;0.93;0.30;;;;;;;;;;5099578;28;20463;-63
2023/08/02 08:59:14;;;;;;;1.05;0.50;;;;;;;;;;5100222;28;20020;-63
2023/08/02 09:01:40;;;;;;;0.75;0.30;;;;;;;;;;5107471;28;20023;-64
2023/08/02 09:04:05;;;;;;;0.73;0.30;;;;;;;;;;5101757;28;20020;-63
2023/08/02 09:06:33;;;;;;;0.80;0.20;;;;;;;;;;5101094;28;20019;-63
2023/08/02 09:08:58;;;;;;;1.00;0.32;;;;;;;;;;5101961;28;20331;-63
2023/08/02 09:11:23;;;;;;;1.37;0.40;;;;;;;;;;5100168;28;20023;-63
2023/08/02 09:14:07;;;;;;;1.05;0.40;;;;;;;;;;5091940;28;20286;-64
2023/08/02 09:16:35;;;;;;;0.90;0.30;;;;;;;;;;5107120;28;20028;-64
2023/08/02 09:19:00;;;;;;;0.63;0.22;;;;;;;;;;5111513;28;20019;-64
2023/08/02 09:21:26;;;;;;;0.50;0.20;;;;;;;;;;5108453;28;20089;-64
2023/08/02 09:23:58;;;;;;;1.13;0.40;;;;;;;;;;5071264;28;20032;-64
2023/08/02 09:26:23;;;;;;;0.95;0.32;;;;;;;;;;5053907;28;20020;-64
2023/08/02 09:28:59;;;;;;;0.70;0.40;;;;;;;;;;5059954;28;20986;-64
2023/08/02 09:31:25;;;;;;;1.33;0.65;;;;;;;;;;5057916;28;20034;-64
2023/08/02 09:33:51;;;;;;;1.00;0.40;;;;;;;;;;5056757;28;20027;-62
2023/08/02 09:36:26;;;;;;;1.98;0.40;;;;;;;;;;5104717;28;20028;-62
2023/08/02 09:39:03;;;;;;;0.73;0.40;;;;;;;;;;5106441;28;20023;-63
2023/08/02 09:41:28;;;;;;;0.85;0.35;;;;;;;;;;5101656;28;20043;-63
2023/08/02 09:43:54;;;;;;;0.77;0.32;;;;;;;;;;5092487;28;20024;-63
2023/08/02 09:46:28;;;;;;;1.15;0.55;;;;;;;;;;5081909;28;20027;-63
2023/08/02 09:48:53;;;;;;;;;;;;;;;;;;5050770;28;20043;-63
2023/08/02 09:51:19;;;;;;;0.67;0.30;;;;;;;;;;5058491;28;20026;-63
2023/08/02 09:53:55;;;;;;;3.10;0.60;;;;;;;;;;5058000;28;20273;-63
2023/08/02 09:56:22;;;;;;;1.65;0.30;;;;;;;;;;5063562;28;20036;-62
2023/08/02 09:58:47;;;;;;;2.00;0.60;;;;;;;;;;5105861;28;20019;-62
2023/08/02 10:01:13;;;;;;;1.30;0.50;;;;;;;;;;5108040;28;20024;-62
2023/08/02 10:03:38;;;;;;;1.27;0.57;;;;;;;;;;5077175;28;20027;-62
2023/08/02 10:06:06;;;;;;;1.10;0.50;;;;;;;;;;5055326;28;20873;-62
2023/08/02 10:08:31;;;;;;;1.95;0.60;;;;;;;;;;5050354;28;20028;-62
2023/08/02 10:10:58;;;;;;;1.30;0.60;;;;;;;;;;5047964;28;20031;-62
2023/08/02 10:13:30;;;;;;;1.10;0.55;;;;;;;;;;5060166;28;20138;-62
2023/08/02 10:15:55;;;;;;;1.08;0.50;;;;;;;;;;5062016;28;20053;-62
2023/08/02 10:18:21;;;;;;;0.93;0.40;;;;;;;;;;5108647;28;20467;-62
2023/08/02 10:20:46;;;;;;;1.58;0.52;;;;;;;;;;5103158;28;20020;-63
2023/08/02 10:23:12;;;;;;;1.35;0.40;;;;;;;;;;5083300;28;20026;-62
2023/08/02 10:25:38;;;;;;;2.88;0.65;;;;;;;;;;5096379;28;20406;-62
2023/08/02 10:28:03;;;;;;;1.75;0.32;;;;;;;;;;5100214;28;20028;-62
2023/08/02 10:30:29;;;;;;;3.88;0.70;;;;;;;;;;5093916;28;20031;-62
2023/08/02 10:33:14;;;;;;;1.38;0.60;;;;;;;;;;5096731;28;20019;-62
2023/08/02 10:36:18;;;;;;;1.95;0.60;;;;;;;;;;5095952;28;20082;-62
2023/08/02 10:38:43;;;;;;;0.77;0.28;;;;;;;;;;5004311;28;20053;-62
2023/08/02 10:41:12;;;;;;;4.90;0.70;;;;;;;;;;5002826;28;20065;-63
2023/08/02 10:43:53;;;;;;;1.65;0.63;;;;;;;;;;5054665;28;20047;-63
2023/08/02 10:46:26;;;;;;;1.45;0.57;;;;;;;;;;5109176;28;20374;-63
2023/08/02 10:48:52;;;;;;;1.40;0.70;;;;;;;;;;5101708;28;20030;-64
2023/08/02 10:51:38;;;;;;;1.88;0.70;;;;;;;;;;5101974;28;20755;-64
2023/08/02 10:54:10;;;;;;;3.50;0.52;;;;;;;;;;5099400;28;20016;-64
2023/08/02 10:56:57;;;;;;;1.70;0.60;;;;;;;;;;5098888;28;20030;-64
2023/08/02 10:59:22;;;;;;;1.20;0.50;;;;;;;;;;5094156;28;20043;-64
2023/08/02 11:01:59;;;;;;;0.93;0.40;;;;;;;;;;5063168;28;20123;-63
2023/08/02 11:04:25;;;;;;;1.13;0.60;;;;;;;;;;5049086;28;20321;-64
2023/08/02 11:06:50;;;;;;;1.08;0.50;;;;;;;;;;5072777;28;20020;-62
2023/08/02 11:09:16;;;;;;;1.38;0.65;;;;;;;;;;5104712;28;20386;-62
2023/08/02 11:11:41;;;;;;;1.67;0.55;;;;;;;;;;5101620;28;20032;-63
2023/08/02 11:14:07;;;;;;;1.30;0.73;;;;;;;;;;5098726;28;20016;-62
2023/08/02 11:16:39;;;;;;;1.70;0.82;;;;;;;;;;5092814;28;20023;-63
2023/08/02 11:19:11;;;;;;;2.05;0.90;;;;;;;;;;5050726;28;20024;-63
2023/08/02 11:21:37;;;;;;;1.60;0.75;;;;;;;;;;5052946;28;20028;-63
2023/08/02 11:24:03;;;;;;;1.63;0.82;;;;;;;;;;5050412;28;20035;-63
2023/08/02 11:26:29;;;;;;;2.72;1.05;;;;;;;;;;5068288;28;20028;-64
2023/08/02 11:28:54;;;;;;;2.60;1.23;;;;;;;;;;5092964;28;20988;-64
2023/08/02 11:31:24;;;;;;;5.30;1.63;;;;;;;;;;5053375;28;20032;-64
2023/08/02 11:33:49;;;;;;;3.60;1.85;;;;;;;;;;5052380;28;20051;-64
2023/08/02 11:36:14;;;;;;;5.75;1.90;;;;;;;;;;5059092;28;20024;-64
2023/08/02 11:38:40;;;;;;;3.05;1.42;;;;;;;;;;5057163;28;20106;-63
2023/08/02 11:41:21;;;;;;;3.25;2.03;;;;;;;;;;5054786;28;20495;-63
2023/08/02 11:43:47;;;;;;;3.88;2.35;;;;;;;;;;5049868;28;20024;-63
2023/08/02 11:46:18;;;;;;;3.45;1.85;;;;;;;;;;5063022;28;20128;-63
2023/08/02 11:48:44;;;;;;;3.13;1.60;;;;;;;;;;5032023;28;20743;-63
2023/08/02 11:51:10;;;;;;;3.15;1.45;;;;;;;;;;5060849;28;20031;-65
2023/08/02 11:53:35;;;;;;;2.50;1.15;;;;;;;;;;5046374;28;20027;-64
2023/08/02 11:56:00;;;;;;;4.45;1.33;;;;;;;;;;5047858;28;20028;-64
2023/08/02 11:58:26;;;;;;;2.17;1.27;;;;;;;;;;5050831;28;20028;-64
2023/08/02 12:00:51;;;;;;;3.03;0.80;;;;;;;;;;5060165;28;20028;-64
2023/08/02 12:03:16;;;;;;;2.60;0.90;;;;;;;;;;5045861;28;20960;-63
2023/08/02 12:05:44;;;;;;;2.05;0.93;;;;;;;;;;5079555;28;20114;-64
2023/08/02 12:08:13;;;;;;;3.10;0.90;;;;;;;;;;5093103;28;20050;-63
2023/08/02 12:10:39;;;;;;;4.32;0.90;;;;;;;;;;5067190;28;20028;-64
2023/08/02 12:13:14;;;;;;;2.03;0.70;;;;;;;;;;5053336;28;20027;-64
2023/08/02 12:15:39;;;;;;;4.35;0.80;;;;;;;;;;5058358;28;20946;-64
2023/08/02 12:18:05;;;;;;;2.38;0.85;;;;;;;;;;5064600;28;20024;-64
2023/08/02 12:20:31;;;;;;;5.22;1.30;;;;;;;;;;5053379;28;20182;-64
2023/08/02 12:22:56;;;;;;;2.47;0.90;;;;;;;;;;5051145;28;20024;-64
2023/08/02 12:25:22;;;;;;;2.55;1.27;;;;;;;;;;5053280;28;20925;-64
2023/08/02 12:28:02;;;;;;;4.63;1.45;;;;;;;;;;5062013;28;20039;-64
2023/08/02 12:30:28;;;;;;;2.10;0.90;;;;;;;;;;5057025;28;20083;-64
2023/08/02 12:32:53;;;;;;;1.80;0.73;;;;;;;;;;5056011;28;20954;-64
2023/08/02 12:35:18;;;;;;;2.33;1.00;;;;;;;;;;5048109;28;20463;-65
2023/08/02 12:37:47;;;;;;;3.42;1.30;;;;;;;;;;5047957;28;20088;-65
2023/08/02 12:40:12;;;;;;;2.72;0.98;;;;;;;;;;5059646;28;20079;-64
2023/08/02 12:42:37;;;;;;;3.23;1.33;;;;;;;;;;5060206;28;20437;-65
2023/08/02 12:45:03;;;;;;;2.70;0.88;;;;;;;;;;5063402;28;20261;-65
2023/08/02 12:47:28;;;;;;;3.00;1.00;;;;;;;;;;5060011;28;20119;-65
2023/08/02 12:49:57;;;;;;;3.25;1.38;;;;;;;;;;5100977;28;20043;-65
2023/08/02 12:52:22;;;;;;;4.00;1.52;;;;;;;;;;5110375;28;20103;-65
2023/08/02 12:54:48;;;;;;;3.08;1.08;;;;;;;;;;5100133;28;20075;-63
2023/08/02 12:57:13;;;;;;;4.30;1.70;;;;;;;;;;5097603;28;20028;-65
2023/08/02 12:59:38;;;;;;;3.67;1.63;;;;;;;;;;5111565;28;20358;-64
2023/08/02 13:02:04;;;;;;;2.80;1.60;;;;;;;;;;5100628;28;20266;-64
2023/08/02 13:04:29;;;;;;;2.90;1.45;;;;;;;;;;5107901;28;20292;-64
2023/08/02 13:06:57;;;;;;;3.77;1.57;;;;;;;;;;5106375;28;20031;-64
2023/08/02 13:09:22;;;;;;;3.22;1.55;;;;;;;;;;5104130;28;20289;-67
2023/08/02 13:11:48;;;;;;;4.03;1.90;;;;;;;;;;5107826;28;20394;-65
2023/08/02 13:14:13;;;;;;;5.30;1.83;;;;;;;;;;5092271;28;20422;-65
2023/08/02 13:16:38;;;;;;;4.93;2.00;;;;;;;;;;5092285;28;20343;-65
2023/08/02 13:19:03;;;;;;;3.77;1.50;;;;;;;;;;5099325;28;20277;-65
2023/08/02 13:21:28;;;;;;;3.53;1.50;;;;;;;;;;5108114;28;20274;-67
2023/08/02 13:23:54;;;;;;;4.43;1.87;;;;;;;;;;5074668;28;20272;-65
2023/08/02 13:26:19;;;;;;;6.10;1.80;;;;;;;;;;5105970;28;20756;-65
2023/08/02 13:28:46;;;;;;;3.40;1.40;;;;;;;;;;5085732;28;20396;-66
2023/08/02 13:31:11;;;;;;;3.92;1.80;;;;;;;;;;5089153;28;20104;-64
2023/08/02 13:33:41;;;;;;;3.77;1.23;;;;;;;;;;5092338;28;20024;-65
2023/08/02 13:36:06;;;;;;;3.20;1.45;;;;;;;;;;5093348;28;20290;-65
2023/08/02 13:38:31;;;;;;;3.07;1.17;;;;;;;;;;5095072;28;20077;-65
2023/08/02 13:40:57;;;;;;;4.23;1.50;;;;;;;;;;5099529;28;20281;-66
2023/08/02 13:43:24;;;;;;;3.97;1.50;;;;;;;;;;5083415;28;21128;-66
2023/08/02 13:45:50;;;;;;;3.60;1.58;;;;;;;;;;5090119;28;20356;-66
2023/08/02 13:48:15;;;;;;;4.70;1.90;;;;;;;;;;5075574;28;20023;-66
2023/08/02 13:50:40;;;;;;;4.22;1.65;;;;;;;;;;5033992;28;20281;-66
2023/08/02 13:53:08;;;;;;;3.92;1.60;;;;;;;;;;5071805;28;20891;-67
2023/08/02 13:55:33;;;;;;;3.13;1.40;;;;;;;;;;5080762;28;20038;-67
2023/08/02 13:57:59;;;;;;;3.63;1.40;;;;;;;;;;5055718;28;20032;-66
2023/08/02 14:00:24;;;;;;;2.83;1.07;;;;;;;;;;5050994;28;20885;-68
2023/08/02 14:02:49;;;;;;;4.35;1.02;;;;;;;;;;5047662;28;20277;-68
2023/08/02 14:05:15;;;;;;;3.42;1.45;;;;;;;;;;5051677;28;20020;-67
2023/08/02 14:07:40;;;;;;;3.77;1.30;;;;;;;;;;5073984;28;20090;-65
2023/08/02 14:10:06;;;;;;;5.43;1.65;;;;;;;;;;5112118;28;20318;-68
2023/08/02 14:12:35;;;;;;;6.65;1.63;;;;;;;;;;5107265;28;20012;-64
2023/08/02 14:15:01;;;;;;;3.00;1.42;;;;;;;;;;5114662;28;20111;-64
2023/08/02 14:17:29;;;;;;;2.35;1.25;;;;;;;;;;5096891;28;20032;-64
2023/08/02 14:19:54;;;;;;;2.97;1.15;;;;;;;;;;5095963;28;20063;-63
2023/08/02 14:22:20;;;;;;;5.20;1.40;;;;;;;;;;5112720;28;20677;-64
2023/08/02 14:24:45;;;;;;;4.32;1.60;;;;;;;;;;5102922;28;20039;-64
2023/08/02 14:27:10;;;;;;;9.63;1.70;;;;;;;;;;5105496;28;20024;-64
2023/08/02 14:29:37;;;;;;;6.10;1.60;;;;;;;;;;5095890;28;20353;-64
2023/08/02 14:32:03;;;;;;;2.97;1.25;;;;;;;;;;5098083;28;20307;-64
2023/08/02 14:34:28;;;;;;;4.90;2.00;;;;;;;;;;5110591;28;20050;-65
2023/08/02 14:36:53;;;;;;;2.40;0.82;;;;;;;;;;5092325;28;20073;-64